createdAt,value
2019-03-22T00:01:11.912Z,99.90
2019-03-22T00:03:45.951Z,99.90
2019-03-22T00:06:19.694Z,99.90
2019-03-22T00:08:52.521Z,99.90
2019-03-22T00:11:25.655Z,99.90
2019-03-22T00:13:58.112Z,99.90
2019-03-22T00:16:30.257Z,99.90
2019-03-22T00:19:03.724Z,99.90
2019-03-22T00:21:36.831Z,99.90
2019-03-22T00:24:09.802Z,99.90
2019-03-22T00:26:43.281Z,99.90
2019-03-22T00:29:15.694Z,99.90
2019-03-22T00:31:49.058Z,99.90
2019-03-22T00:34:22.768Z,99.90
2019-03-22T00:36:55.614Z,99.90
2019-03-22T00:39:28.328Z,99.90
2019-03-22T00:42:02.368Z,99.90
2019-03-22T00:44:34.897Z,99.90
2019-03-22T00:47:06.982Z,99.90
2019-03-22T00:49:39.636Z,99.90
2019-03-22T00:52:12.554Z,99.90
2019-03-22T00:54:45.017Z,99.90
2019-03-22T00:57:28.010Z,99.90
2019-03-22T00:59:53.196Z,99.90
2019-03-22T01:02:26.613Z,99.90
2019-03-22T01:04:59.382Z,99.90
2019-03-22T01:07:33.461Z,99.90
2019-03-22T01:10:06.640Z,99.90
2019-03-22T01:12:38.572Z,99.90
2019-03-22T01:15:10.796Z,99.90
2019-03-22T01:17:43.505Z,99.90
2019-03-22T01:20:16.107Z,99.90
2019-03-22T01:22:49.555Z,99.90
2019-03-22T01:25:22.984Z,99.90
2019-03-22T01:27:56.858Z,99.90
2019-03-22T01:30:30.324Z,99.90
2019-03-22T01:33:04.397Z,99.90
2019-03-22T01:35:37.763Z,99.90
2019-03-22T01:38:10.677Z,99.90
2019-03-22T01:40:44.730Z,99.90
2019-03-22T01:43:17.946Z,99.90
2019-03-22T01:45:50.338Z,99.90
2019-03-22T01:48:23.442Z,99.90
2019-03-22T01:50:56.737Z,99.90
2019-03-22T01:53:28.513Z,99.90
2019-03-22T01:56:00.645Z,99.90
2019-03-22T01:58:33.355Z,99.90
2019-03-22T03:00:26.582Z,99.90
2019-03-22T03:02:58.517Z,99.90
2019-03-22T03:05:30.424Z,99.90
2019-03-22T03:08:02.960Z,99.90
2019-03-22T03:10:34.603Z,99.90
2019-03-22T03:13:06.609Z,99.90
2019-03-22T03:15:38.435Z,99.90
2019-03-22T03:18:10.618Z,99.90
2019-03-22T03:20:43.039Z,99.90
2019-03-22T03:23:14.835Z,99.90
2019-03-22T03:25:47.158Z,99.90
2019-03-22T03:28:19.374Z,99.90
2019-03-22T03:30:51.050Z,99.90
2019-03-22T03:33:23.529Z,99.90
2019-03-22T03:35:54.938Z,99.90
2019-03-22T03:38:28.115Z,99.90
2019-03-22T03:41:00.259Z,99.90
2019-03-22T03:43:32.029Z,99.90
2019-03-22T03:46:03.579Z,99.90
2019-03-22T03:48:36.492Z,99.90
2019-03-22T03:51:07.827Z,99.90
2019-03-22T03:53:39.700Z,99.90
2019-03-22T03:56:10.982Z,99.90
2019-03-22T03:58:52.328Z,99.90
2019-03-22T04:01:16.245Z,99.90
2019-03-22T04:03:48.219Z,99.90
2019-03-22T04:06:20.520Z,99.90
2019-03-22T04:08:52.743Z,99.90
2019-03-22T04:11:24.359Z,99.90
2019-03-22T04:13:56.308Z,99.90
2019-03-22T04:16:28.548Z,99.90
2019-03-22T04:19:00.317Z,99.90
2019-03-22T04:21:32.218Z,99.90
2019-03-22T04:24:04.083Z,99.90
2019-03-22T04:26:35.630Z,99.90
2019-03-22T04:29:09.328Z,99.90
2019-03-22T04:31:41.610Z,99.90
2019-03-22T04:34:13.466Z,99.90
2019-03-22T04:36:45.846Z,99.90
2019-03-22T04:39:17.634Z,99.90
2019-03-22T04:41:49.581Z,99.90
2019-03-22T04:44:21.537Z,99.90
2019-03-22T04:46:54.702Z,99.90
2019-03-22T04:49:27.912Z,99.90
2019-03-22T04:52:00.331Z,99.90
2019-03-22T04:54:35.161Z,99.90
2019-03-22T04:57:08.945Z,99.90
2019-03-22T04:59:42.262Z,99.90
2019-03-22T05:02:15.547Z,99.90
2019-03-22T05:04:48.990Z,99.90
2019-03-22T05:07:21.946Z,99.90
2019-03-22T05:09:54.103Z,99.90
2019-03-22T05:12:27.575Z,99.90
2019-03-22T05:15:00.830Z,99.90
2019-03-22T05:17:33.378Z,99.90
2019-03-22T05:20:05.734Z,99.90
2019-03-22T05:22:39.020Z,99.90
2019-03-22T05:25:11.776Z,99.90
2019-03-22T05:27:45.093Z,99.90
2019-03-22T05:31:06.325Z,99.90
2019-03-22T05:33:37.629Z,99.90
2019-03-22T05:36:09.466Z,99.90
2019-03-22T05:38:40.814Z,99.90
2019-03-22T05:41:13.852Z,99.90
2019-03-22T05:43:46.045Z,99.90
2019-03-22T05:46:18.182Z,99.90
2019-03-22T05:48:50.541Z,99.90
2019-03-22T05:51:22.386Z,99.90
2019-03-22T05:53:55.562Z,99.90
2019-03-22T05:56:27.405Z,99.90
2019-03-22T05:58:59.566Z,99.90
2019-03-22T06:01:32.371Z,99.90
2019-03-22T06:04:04.826Z,99.90
2019-03-22T06:06:36.761Z,99.90
2019-03-22T06:09:11.286Z,99.90
2019-03-22T06:11:43.153Z,99.90
2019-03-22T06:14:15.081Z,99.90
2019-03-22T06:16:47.580Z,99.90
2019-03-22T06:19:19.702Z,99.90
2019-03-22T06:21:51.570Z,99.90
2019-03-22T06:24:23.358Z,99.90
2019-03-22T06:26:55.991Z,99.90
2019-03-22T06:29:28.118Z,99.90
2019-03-22T06:31:59.346Z,99.90
2019-03-22T06:34:31.203Z,99.90
2019-03-22T06:37:03.001Z,99.90
2019-03-22T06:39:34.226Z,99.90
2019-03-22T06:42:06.562Z,99.90
2019-03-22T06:44:39.567Z,99.90
2019-03-22T06:47:11.678Z,99.90
2019-03-22T06:49:44.541Z,99.90
2019-03-22T06:52:16.479Z,99.90
2019-03-22T06:54:48.012Z,99.90
2019-03-22T06:57:19.714Z,99.90
2019-03-22T06:59:51.597Z,99.90
2019-03-22T07:02:24.060Z,99.90
2019-03-22T07:04:55.914Z,99.90
2019-03-22T07:09:59.050Z,99.90
2019-03-22T07:12:31.162Z,99.90
2019-03-22T07:15:03.118Z,99.90
2019-03-22T07:17:34.618Z,99.90
2019-03-22T07:20:06.336Z,99.90
2019-03-22T07:22:38.457Z,99.90
2019-03-22T07:25:10.606Z,99.90
2019-03-22T07:27:42.525Z,99.90
2019-03-22T07:30:18.949Z,99.90
2019-03-22T07:32:48.734Z,99.90
2019-03-22T07:35:20.613Z,99.90
2019-03-22T07:37:52.814Z,99.90
2019-03-22T07:40:24.673Z,99.90
2019-03-22T07:42:57.305Z,99.90
2019-03-22T07:45:33.555Z,99.90
2019-03-22T07:48:04.862Z,99.90
2019-03-22T07:50:37.350Z,99.90
2019-03-22T07:53:09.246Z,99.90
2019-03-22T07:55:41.671Z,99.90
2019-03-22T07:58:14.327Z,99.90
2019-03-22T08:00:46.808Z,99.90
2019-03-22T08:03:18.641Z,99.90
2019-03-22T08:05:51.417Z,99.90
2019-03-22T08:08:24.350Z,99.90
2019-03-22T08:10:56.850Z,99.90
2019-03-22T08:13:28.370Z,99.90
2019-03-22T08:16:00.350Z,99.90
2019-03-22T08:18:32.791Z,99.90
2019-03-22T08:21:05.786Z,99.90
2019-03-22T08:23:37.971Z,99.90
2019-03-22T08:26:10.159Z,99.90
2019-03-22T08:28:41.941Z,99.90
2019-03-22T08:31:14.360Z,99.90
2019-03-22T08:33:46.148Z,99.90
2019-03-22T08:36:18.166Z,99.90
2019-03-22T08:38:49.750Z,99.90
2019-03-22T08:41:23.972Z,99.90
2019-03-22T08:43:56.023Z,99.90
2019-03-22T08:46:27.297Z,99.90
2019-03-22T08:48:58.972Z,99.90
2019-03-22T08:51:31.242Z,99.90
2019-03-22T08:54:02.586Z,99.90
2019-03-22T08:56:36.022Z,99.90
2019-03-22T08:59:07.221Z,99.90
2019-03-22T09:01:39.826Z,99.90
2019-03-22T09:04:12.032Z,99.90
2019-03-22T09:06:43.821Z,99.90
2019-03-22T09:09:15.551Z,99.90
2019-03-22T09:11:47.842Z,99.90
2019-03-22T09:14:20.444Z,99.90
2019-03-22T09:16:52.813Z,99.90
2019-03-22T09:19:25.339Z,99.90
2019-03-22T09:21:59.540Z,99.90
2019-03-22T09:24:38.996Z,99.90
2019-03-22T09:27:03.955Z,99.90
2019-03-22T09:29:36.296Z,99.90
2019-03-22T09:32:08.732Z,99.90
2019-03-22T09:34:40.895Z,99.90
2019-03-22T09:37:13.073Z,99.90
2019-03-22T09:39:45.094Z,99.90
2019-03-22T09:42:17.751Z,99.90
2019-03-22T09:44:49.443Z,99.90
2019-03-22T09:47:21.833Z,99.90
2019-03-22T09:49:53.763Z,99.90
2019-03-22T09:52:25.451Z,99.90
2019-03-22T09:54:57.685Z,99.90
2019-03-22T09:57:29.166Z,99.90
2019-03-22T10:00:01.621Z,99.90
2019-03-22T10:02:34.301Z,99.90
2019-03-22T10:05:07.949Z,99.90
2019-03-22T10:07:40.414Z,99.90
2019-03-22T10:10:12.339Z,99.90
2019-03-22T10:12:44.361Z,99.90
2019-03-22T10:15:16.339Z,99.90
2019-03-22T10:17:48.094Z,99.90
2019-03-22T10:20:20.063Z,99.90
2019-03-22T10:22:51.831Z,99.90
2019-03-22T10:25:24.277Z,99.90
2019-03-22T10:27:56.444Z,99.90
2019-03-22T10:30:28.231Z,99.90
2019-03-22T10:33:00.731Z,99.90
2019-03-22T10:35:33.736Z,99.90
2019-03-22T10:38:15.470Z,99.90
2019-03-22T10:40:39.573Z,99.90
2019-03-22T10:43:11.912Z,99.90
2019-03-22T10:45:44.016Z,99.90
2019-03-22T10:48:16.058Z,99.90
2019-03-22T10:50:48.275Z,99.90
2019-03-22T10:53:20.449Z,99.90
2019-03-22T10:55:52.231Z,98.80
2019-03-22T10:58:23.963Z,97.20
2019-03-22T11:00:55.592Z,99.90
2019-03-22T11:03:28.014Z,99.90
2019-03-22T11:06:00.410Z,99.90
2019-03-22T11:08:32.406Z,99.90
2019-03-22T11:11:04.687Z,99.90
2019-03-22T11:13:37.063Z,99.60
2019-03-22T11:16:10.163Z,91.70
2019-03-22T11:18:42.488Z,99.90
2019-03-22T11:21:14.863Z,91.10
2019-03-22T11:23:47.241Z,85.80
2019-03-22T11:26:20.171Z,80.70
2019-03-22T11:28:52.847Z,92.40
2019-03-22T11:31:28.699Z,83.80
2019-03-22T11:33:58.386Z,80.80
2019-03-22T11:36:30.187Z,99.90
2019-03-22T11:39:02.247Z,81.70
2019-03-22T11:41:35.456Z,74.10
2019-03-22T11:44:07.154Z,73.90
2019-03-22T11:46:39.207Z,87.80
2019-03-22T11:49:10.899Z,92.30
2019-03-22T11:51:43.723Z,82.00
2019-03-22T11:54:15.126Z,76.30
2019-03-22T11:56:47.117Z,70.90
2019-03-22T11:59:19.529Z,90.70
2019-03-22T12:01:51.536Z,87.60
2019-03-22T12:04:24.447Z,84.30
2019-03-22T12:06:56.581Z,85.60
2019-03-22T12:09:30.632Z,71.60
2019-03-22T12:12:02.669Z,67.30
2019-03-22T12:14:34.835Z,65.30
2019-03-22T12:17:06.450Z,69.50
2019-03-22T12:19:38.683Z,87.20
2019-03-22T12:22:10.956Z,74.50
2019-03-22T12:24:43.237Z,90.20
2019-03-22T12:27:15.927Z,62.30
2019-03-22T12:29:47.691Z,65.40
2019-03-22T12:32:19.779Z,84.70
2019-03-22T12:34:52.206Z,72.00
2019-03-22T12:37:24.334Z,69.00
2019-03-22T12:39:56.138Z,63.60
2019-03-22T12:42:28.480Z,83.30
2019-03-22T12:45:00.407Z,75.00
2019-03-22T12:47:33.202Z,60.20
2019-03-22T12:50:05.317Z,71.70
2019-03-22T12:52:37.078Z,60.80
2019-03-22T12:55:09.990Z,65.70
2019-03-22T12:57:41.798Z,70.80
2019-03-22T13:00:16.362Z,68.30
2019-03-22T13:02:47.943Z,55.80
2019-03-22T13:05:20.522Z,56.80
2019-03-22T13:07:52.720Z,56.30
2019-03-22T13:10:25.182Z,61.80
2019-03-22T13:12:57.063Z,58.60
2019-03-22T13:15:29.097Z,53.10
2019-03-22T13:18:00.965Z,57.70
2019-03-22T13:20:33.432Z,52.50
2019-03-22T13:23:05.775Z,53.50
2019-03-22T13:25:37.355Z,56.70
2019-03-22T13:28:08.754Z,60.80
2019-03-22T13:30:40.170Z,58.50
2019-03-22T13:33:12.247Z,53.70
2019-03-22T13:35:44.449Z,54.80
2019-03-22T13:38:16.238Z,58.40
2019-03-22T13:40:48.587Z,59.40
2019-03-22T13:43:20.915Z,65.00
2019-03-22T13:45:52.582Z,55.00
2019-03-22T13:48:25.344Z,54.60
2019-03-22T13:50:57.462Z,55.00
2019-03-22T13:53:29.305Z,65.30
2019-03-22T13:56:01.056Z,64.00
2019-03-22T13:58:33.667Z,57.00
2019-03-22T14:01:05.485Z,54.50
2019-03-22T14:03:37.481Z,55.90
2019-03-22T14:06:09.926Z,53.70
2019-03-22T14:08:42.283Z,51.80
2019-03-22T14:11:14.683Z,57.90
2019-03-22T14:13:47.165Z,54.30
2019-03-22T14:16:19.244Z,54.20
2019-03-22T14:18:51.408Z,60.20
2019-03-22T14:21:23.496Z,55.10
2019-03-22T14:23:55.297Z,60.50
2019-03-22T14:26:26.995Z,57.10
2019-03-22T14:28:59.336Z,57.20
2019-03-22T14:31:32.356Z,53.40
2019-03-22T14:34:03.694Z,52.60
2019-03-22T14:36:35.726Z,53.60
2019-03-22T14:39:08.894Z,57.50
2019-03-22T14:41:40.852Z,53.00
2019-03-22T14:44:13.543Z,58.00
2019-03-22T14:46:45.719Z,57.20
2019-03-22T14:49:18.441Z,55.40
2019-03-22T14:51:50.387Z,51.60
2019-03-22T14:54:22.642Z,53.70
2019-03-22T14:56:55.060Z,53.80
2019-03-22T14:59:28.003Z,55.10
2019-03-22T15:01:59.634Z,54.30
2019-03-22T15:04:31.619Z,59.70
2019-03-22T15:07:03.234Z,56.10
2019-03-22T15:09:35.207Z,53.40
2019-03-22T15:12:08.158Z,55.70
2019-03-22T15:14:53.743Z,58.00
2019-03-22T15:17:50.446Z,55.40
2019-03-22T15:20:53.235Z,55.80
2019-03-22T15:23:43.107Z,57.50
2019-03-22T15:26:25.181Z,57.20
2019-03-22T15:31:59.019Z,56.10
2019-03-22T15:35:04.323Z,53.90
2019-03-22T15:38:07.890Z,55.20
2019-03-22T15:40:40.047Z,58.40
2019-03-22T15:43:12.402Z,55.00
2019-03-22T15:45:45.374Z,57.30
2019-03-22T15:48:18.326Z,56.60
2019-03-22T15:51:02.561Z,53.80
2019-03-22T15:53:35.335Z,55.30
2019-03-22T15:56:08.026Z,57.00
2019-03-22T15:58:40.570Z,55.40
2019-03-22T16:01:14.817Z,58.40
2019-03-22T16:03:46.569Z,56.60
2019-03-22T16:06:18.643Z,55.50
2019-03-22T16:08:53.359Z,57.60
2019-03-22T16:11:26.214Z,55.00
2019-03-22T16:13:58.189Z,55.30
2019-03-22T16:16:29.919Z,55.50
2019-03-22T16:19:01.845Z,58.50
2019-03-22T16:21:34.654Z,55.40
2019-03-22T16:24:06.625Z,58.10
2019-03-22T16:26:39.628Z,56.40
2019-03-22T16:29:11.860Z,55.80
2019-03-22T16:31:44.853Z,56.00
2019-03-22T16:34:16.535Z,57.40
2019-03-22T16:36:48.709Z,57.70
2019-03-22T16:39:20.235Z,56.70
2019-03-22T16:41:52.042Z,58.30
2019-03-22T16:44:24.685Z,58.10
2019-03-22T16:46:57.123Z,57.10
2019-03-22T16:49:30.749Z,57.50
2019-03-22T16:52:02.628Z,57.50
2019-03-22T16:54:35.153Z,58.40
2019-03-22T16:57:06.476Z,58.10
2019-03-22T17:02:09.517Z,58.40
2019-03-22T17:04:41.386Z,59.60
2019-03-22T17:07:14.046Z,59.80
2019-03-22T17:09:46.821Z,60.10
2019-03-22T17:12:19.526Z,60.40
2019-03-22T17:14:51.809Z,61.60
2019-03-22T17:17:23.328Z,62.10
2019-03-22T17:19:55.232Z,62.40
2019-03-22T17:22:27.861Z,63.10
2019-03-22T17:25:00.963Z,63.30
2019-03-22T17:27:34.314Z,63.60
2019-03-22T17:30:06.717Z,64.40
2019-03-22T17:32:39.378Z,65.50
2019-03-22T17:35:12.322Z,66.20
2019-03-22T17:37:46.162Z,67.00
2019-03-22T17:40:18.290Z,68.20
2019-03-22T17:42:50.477Z,69.50
2019-03-22T17:45:22.170Z,70.50
2019-03-22T17:47:53.762Z,71.50
2019-03-22T17:50:25.608Z,72.50
2019-03-22T17:52:57.577Z,74.20
2019-03-22T17:55:29.263Z,76.00
2019-03-22T17:58:02.978Z,77.70
2019-03-22T18:00:36.771Z,79.10
2019-03-22T18:03:10.882Z,81.60
2019-03-22T18:05:42.685Z,84.50
2019-03-22T18:08:14.195Z,85.40
2019-03-22T18:10:47.917Z,87.40
2019-03-22T18:13:19.546Z,89.20
2019-03-22T18:15:52.024Z,90.10
2019-03-22T18:18:24.009Z,91.10
2019-03-22T18:20:56.122Z,91.80
2019-03-22T18:23:35.493Z,93.00
2019-03-22T18:26:02.377Z,94.10
2019-03-22T18:28:35.111Z,95.20
2019-03-22T18:31:06.882Z,96.60
2019-03-22T18:33:38.997Z,97.50
2019-03-22T18:36:12.401Z,98.10
2019-03-22T18:38:43.690Z,99.30
2019-03-22T18:41:16.290Z,99.90
2019-03-22T18:43:49.365Z,99.90
2019-03-22T18:46:21.570Z,99.90
2019-03-22T18:48:54.717Z,99.90
2019-03-22T18:51:27.776Z,99.90
2019-03-22T18:54:00.762Z,99.90
2019-03-22T18:56:32.771Z,99.90
2019-03-22T18:59:04.473Z,99.90
2019-03-22T19:01:36.358Z,99.90
2019-03-22T19:04:08.191Z,99.90
2019-03-22T19:06:40.467Z,99.90
2019-03-22T19:09:13.166Z,99.90
2019-03-22T19:11:44.800Z,99.90
2019-03-22T19:14:17.213Z,99.90
2019-03-22T19:16:59.435Z,99.90
2019-03-22T19:19:31.355Z,99.90
2019-03-22T19:22:03.642Z,99.90
2019-03-22T19:24:36.363Z,99.90
2019-03-22T19:27:08.487Z,99.90
2019-03-22T19:29:40.689Z,99.90
2019-03-22T19:32:13.786Z,99.90
2019-03-22T19:34:53.879Z,99.90
2019-03-22T19:37:20.982Z,99.90
2019-03-22T19:39:53.143Z,99.90
2019-03-22T19:42:24.853Z,99.90
2019-03-22T19:44:56.927Z,99.90
2019-03-22T19:47:29.363Z,99.90
2019-03-22T19:50:01.471Z,99.90
2019-03-22T19:52:34.225Z,99.90
2019-03-22T19:55:09.404Z,99.90
2019-03-22T19:57:41.237Z,99.90
2019-03-22T20:00:13.122Z,99.90
2019-03-22T20:02:45.363Z,99.90
2019-03-22T20:05:38.414Z,99.90
2019-03-22T20:08:13.735Z,99.90
2019-03-22T20:10:44.654Z,99.90
2019-03-22T20:13:17.049Z,99.90
2019-03-22T20:15:49.369Z,99.90
2019-03-22T20:18:21.113Z,99.90
2019-03-22T20:20:53.767Z,99.90
2019-03-22T20:23:27.284Z,99.90
2019-03-22T20:25:59.602Z,99.90
2019-03-22T20:28:33.126Z,99.90
2019-03-22T20:31:06.030Z,99.90
2019-03-22T20:33:37.279Z,99.90
2019-03-22T20:36:09.238Z,99.90
2019-03-22T20:38:41.369Z,99.90
2019-03-22T20:41:13.265Z,99.90
2019-03-22T20:43:45.905Z,99.90
2019-03-22T20:46:18.230Z,99.90
2019-03-22T20:48:50.866Z,99.90
2019-03-22T20:51:26.430Z,99.90
2019-03-22T20:54:00.221Z,99.90
2019-03-22T20:56:31.962Z,99.90
2019-03-22T20:59:03.949Z,99.90
2019-03-22T21:01:36.649Z,99.90
2019-03-22T21:04:09.318Z,99.90
2019-03-22T21:06:43.001Z,99.90
2019-03-22T21:09:14.989Z,99.90
2019-03-22T21:11:47.610Z,99.90
2019-03-22T21:14:20.575Z,99.90
2019-03-22T21:16:54.489Z,99.90
2019-03-22T21:19:26.601Z,99.90
2019-03-22T21:21:59.206Z,99.90
2019-03-22T21:24:31.142Z,99.90
2019-03-22T21:27:03.473Z,99.90
2019-03-22T21:29:43.782Z,99.90
2019-03-22T21:32:10.593Z,99.90
2019-03-22T21:34:44.105Z,99.90
2019-03-22T21:37:16.646Z,99.90
2019-03-22T21:39:48.985Z,99.90
2019-03-22T21:42:20.592Z,99.90
2019-03-22T21:44:52.757Z,99.90
2019-03-22T21:47:24.336Z,99.90
2019-03-22T21:49:57.130Z,99.90
2019-03-22T21:52:28.342Z,99.90
2019-03-22T21:55:02.370Z,99.90
2019-03-22T21:57:34.739Z,99.90
2019-03-22T22:00:08.054Z,99.90
2019-03-22T22:02:39.705Z,99.90
2019-03-22T22:05:12.461Z,99.90
2019-03-22T22:07:45.252Z,99.90
2019-03-22T22:10:18.471Z,99.90
2019-03-22T22:12:50.087Z,99.90
2019-03-22T22:15:22.626Z,99.90
2019-03-22T22:17:55.249Z,99.90
2019-03-22T22:20:29.238Z,99.90
2019-03-22T22:23:00.213Z,99.90
2019-03-22T22:25:32.102Z,99.90
2019-03-22T22:28:04.062Z,99.90
2019-03-22T22:30:36.041Z,99.90
2019-03-22T22:33:08.320Z,99.90
2019-03-22T22:35:39.902Z,99.90
2019-03-22T22:38:12.152Z,99.90
2019-03-22T22:40:44.953Z,99.90
2019-03-22T22:43:17.917Z,99.90
2019-03-22T22:45:50.533Z,99.90
2019-03-22T22:48:23.195Z,99.90
2019-03-22T22:50:55.887Z,99.90
2019-03-22T22:53:28.601Z,99.90
2019-03-22T22:56:00.925Z,99.90
2019-03-22T22:58:32.734Z,99.90
2019-03-22T23:01:05.142Z,99.90
2019-03-22T23:03:37.561Z,99.90
2019-03-22T23:06:10.057Z,99.90
2019-03-22T23:08:42.459Z,99.90
2019-03-22T23:11:14.004Z,99.90
2019-03-22T23:13:46.573Z,99.90
2019-03-22T23:16:18.920Z,99.90
2019-03-22T23:18:52.126Z,99.90
2019-03-22T23:21:24.846Z,99.90
2019-03-22T23:23:56.349Z,99.90
2019-03-22T23:26:29.015Z,99.90
2019-03-22T23:29:01.309Z,99.90
2019-03-22T23:31:33.113Z,99.90
2019-03-22T23:34:05.209Z,99.90
2019-03-22T23:36:37.128Z,99.90
2019-03-22T23:39:10.010Z,99.90
2019-03-22T23:41:42.817Z,99.90
2019-03-22T23:44:14.794Z,99.90
2019-03-22T23:46:46.563Z,99.90
2019-03-22T23:49:19.601Z,99.90
2019-03-22T23:51:51.083Z,99.90
2019-03-22T23:54:23.905Z,99.90
2019-03-22T23:56:55.786Z,99.90
2019-03-22T23:59:27.750Z,99.90
